Time;durP1;ratioP1;P1;durP2;ratioP2;P2;SDS_P1;SDS_P2;PMS_P1;PMS_P2;Temp;Humidity;BMP_temperature;BMP_pressure;BME280_temperature;BME280_humidity;BME280_pressure;Samples;Min_cycle;Max_cycle;Signal;HPM_P1;HPM_P2
2023/05/02 00:00:08;;;;;;;;;12.50;10.00;;;;;16.20;56.45;101542.38;4902656;28;45385;-61
2023/05/02 00:02:33;;;;;;;;;9.40;8.80;;;;;16.19;56.30;101534.28;4942903;28;45420;-61
2023/05/02 00:04:59;;;;;;;;;9.00;9.00;;;;;16.13;56.43;101525.00;4916326;28;45743;-61
2023/05/02 00:07:25;;;;;;;;;11.00;8.25;;;;;16.22;56.62;101531.91;5013846;28;45437;-63
2023/05/02 00:09:51;;;;;;;;;14.40;10.40;;;;;16.23;56.59;101530.00;5015202;28;45365;-61
2023/05/02 00:12:16;;;;;;;;;11.25;8.75;;;;;16.16;56.57;101521.75;5014851;28;45575;-61
2023/05/02 00:14:42;;;;;;;;;10.75;9.50;;;;;16.18;56.46;101530.69;5047411;28;45601;-61
2023/05/02 00:17:07;;;;;;;;;11.25;9.00;;;;;16.05;56.55;101528.91;5015146;28;46488;-63
2023/05/02 00:19:37;;;;;;;;;9.00;8.50;;;;;15.91;57.02;101514.31;5046912;28;45366;-61
2023/05/02 00:22:03;;;;;;;;;12.00;9.40;;;;;15.97;56.73;101524.50;5047573;28;45437;-61
2023/05/02 00:24:28;;;;;;;;;14.50;11.75;;;;;16.06;56.77;101532.53;5015165;28;45401;-61
2023/05/02 00:26:54;;;;;;;;;9.50;9.50;;;;;16.04;56.93;101523.59;5046842;28;47328;-61
2023/05/02 00:29:20;;;;;;;;;10.50;9.25;;;;;16.08;56.96;101525.69;5013600;28;45373;-61
2023/05/02 00:31:45;;;;;;;;;11.50;9.00;;;;;16.07;56.94;101529.50;5015038;28;45291;-61
2023/05/02 00:34:11;;;;;;;;;11.00;9.25;;;;;15.90;57.41;101514.56;5015202;28;45993;-62
2023/05/02 00:36:36;;;;;;;;;10.50;10.50;;;;;15.98;57.50;101517.91;5014782;28;47660;-62
2023/05/02 00:39:03;;;;;;;;;9.75;8.75;;;;;15.98;57.44;101514.28;5015520;28;45990;-62
2023/05/02 00:41:28;;;;;;;;;12.80;10.20;;;;;15.97;57.34;101518.13;5014891;28;45512;-62
2023/05/02 00:43:53;;;;;;;;;13.25;10.00;;;;;15.88;57.46;101513.94;5015484;28;45401;-62
2023/05/02 00:46:19;;;;;;;;;8.75;8.75;;;;;15.83;57.59;101523.78;5014725;28;46775;-63
2023/05/02 00:48:45;;;;;;;;;14.50;9.25;;;;;15.81;57.92;101525.91;5030280;28;45376;-63
2023/05/02 00:51:12;;;;;;;;;8.75;8.75;;;;;15.82;57.50;101524.88;5046683;28;45383;-61
2023/05/02 00:53:37;;;;;;;;;13.80;10.80;;;;;15.84;57.80;101525.47;5015091;28;45599;-61
2023/05/02 00:56:03;;;;;;;;;13.50;13.00;;;;;15.88;57.63;101527.78;5046381;28;46293;-61
2023/05/02 00:58:29;;;;;;;;;12.50;11.00;;;;;15.88;57.99;101527.78;5014562;28;45422;-61
2023/05/02 01:01:03;;;;;;;;;14.00;10.00;;;;;15.77;57.84;101532.13;5014885;28;45479;-62
2023/05/02 01:03:52;;;;;;;;;10.80;10.80;;;;;15.70;57.99;101521.16;5046872;28;45452;-62
2023/05/02 01:06:40;;;;;;;;;13.80;12.00;;;;;15.82;57.94;101533.16;5011021;28;45754;-61
2023/05/02 01:09:43;;;;;;;;;13.40;11.60;;;;;15.84;57.93;101527.38;4913968;28;45350;-61
2023/05/02 01:12:32;;;;;;;;;14.40;11.40;;;;;15.79;58.08;101533.59;4914506;28;45475;-61
2023/05/02 01:14:58;;;;;;;;;9.80;9.00;;;;;15.82;58.10;101527.63;4945347;28;45294;-61
2023/05/02 01:17:27;;;;;;;;;15.00;11.40;;;;;15.80;58.26;101523.41;4928982;28;46063;-61
2023/05/02 01:19:55;;;;;;;;;12.40;12.40;;;;;15.74;57.97;101527.91;4914196;28;45433;-61
2023/05/02 01:22:20;;;;;;;;;13.60;11.20;;;;;15.59;59.15;101536.56;4929246;28;45519;-61
2023/05/02 01:25:16;;;;;;;;;13.00;10.75;;;;;15.57;58.50;101531.25;4931889;28;45456;-61
2023/05/02 01:27:57;;;;;;;;;13.20;11.00;;;;;15.67;58.41;101538.19;4944802;28;45308;-63
2023/05/02 01:30:23;;;;;;;;;15.00;13.60;;;;;15.64;58.91;101528.41;4919939;28;45399;-61
2023/05/02 01:32:49;;;;;;;;;15.00;15.00;;;;;15.61;58.46;101528.03;4916709;28;45408;-61
2023/05/02 01:35:15;;;;;;;;;21.00;16.25;;;;;15.38;58.85;101507.38;4947940;28;45630;-62
2023/05/02 01:37:41;;;;;;;;;24.20;17.20;;;;;15.55;59.09;101529.78;4916934;28;45452;-61
2023/05/02 01:40:08;;;;;;;;;16.80;15.60;;;;;15.45;59.30;101535.84;4931553;28;45385;-61
2023/05/02 01:42:33;;;;;;;;;15.80;12.80;;;;;15.43;59.24;101527.75;4947791;28;45498;-63
2023/05/02 01:44:59;;;;;;;;;16.50;14.00;;;;;15.43;59.32;101529.69;4947799;28;45305;-62
2023/05/02 01:47:25;;;;;;;;;14.40;14.40;;;;;15.47;59.15;101533.69;4931083;28;47121;-62
2023/05/02 01:49:50;;;;;;;;;15.50;13.00;;;;;15.48;59.63;101540.91;4916999;28;45337;-62
2023/05/02 01:52:15;;;;;;;;;14.25;13.25;;;;;15.50;59.33;101537.91;4916752;28;45714;-62
2023/05/02 01:54:41;;;;;;;;;12.75;10.50;;;;;15.40;59.34;101524.59;4931979;28;45336;-62
2023/05/02 01:57:07;;;;;;;;;12.25;12.25;;;;;15.44;59.77;101532.22;4947329;28;46705;-62
2023/05/02 01:59:33;;;;;;;;;15.60;12.20;;;;;15.41;59.51;101534.56;4915568;28;45395;-62
2023/05/02 02:01:58;;;;;;;;;12.25;12.25;;;;;15.35;59.86;101528.03;4916797;28;45967;-62
2023/05/02 02:04:24;;;;;;;;;15.25;14.00;;;;;15.39;59.33;101526.53;4931438;28;45417;-62
2023/05/02 02:06:52;;;;;;;;;13.75;13.00;;;;;15.37;59.23;101516.75;5000794;28;46537;-63
2023/05/02 02:09:18;;;;;;;;;19.00;16.60;;;;;15.41;59.31;101524.38;5048686;28;45459;-62
2023/05/02 02:11:46;;;;;;;;;15.00;14.00;;;;;15.27;59.29;101487.66;5016140;28;45322;-62
2023/05/02 02:14:20;;;;;;;;;15.20;14.00;;;;;15.45;58.86;101517.31;5049338;28;45769;-61
2023/05/02 02:16:46;;;;;;;;;15.40;13.40;;;;;15.34;59.32;101511.66;5047501;28;47075;-62
2023/05/02 02:19:13;;;;;;;;;17.75;15.75;;;;;15.46;59.35;101540.28;5032324;28;45312;-61
2023/05/02 02:21:39;;;;;;;;;14.00;13.80;;;;;15.45;59.55;101538.59;5017343;28;45797;-61
2023/05/02 02:24:05;;;;;;;;;16.80;15.00;;;;;15.42;59.50;101542.66;5017533;28;45532;-61
2023/05/02 02:26:31;;;;;;;;;15.00;14.50;;;;;15.41;59.29;101534.56;5031992;28;46194;-61
2023/05/02 02:28:56;;;;;;;;;17.00;15.25;;;;;15.44;59.56;101545.22;5015708;28;45396;-61
2023/05/02 02:31:24;;;;;;;;;19.00;14.75;;;;;15.32;59.49;101554.22;5048836;28;45366;-61
2023/05/02 02:33:49;;;;;;;;;17.40;15.20;;;;;15.32;59.86;101551.47;5016918;28;46331;-62
2023/05/02 02:36:23;;;;;;;;;14.50;14.00;;;;;15.33;59.74;101549.56;5048791;28;45631;-63
2023/05/02 02:38:59;;;;;;;;;16.00;13.80;;;;;15.39;59.77;101556.09;5031871;28;45782;-62
2023/05/02 02:41:32;;;;;;;;;19.80;17.20;;;;;15.40;59.57;101552.25;5047087;28;45252;-62
2023/05/02 02:44:19;;;;;;;;;20.60;19.60;;;;;15.25;59.30;101531.31;5016039;28;45400;-62
2023/05/02 02:46:51;;;;;;;;;17.40;16.60;;;;;15.37;59.85;101558.25;5046994;28;46615;-62
2023/05/02 02:49:29;;;;;;;;;19.00;13.40;;;;;15.35;59.60;101564.00;5031724;28;45384;-62
2023/05/02 02:52:04;;;;;;;;;15.00;14.80;;;;;15.30;59.69;101561.91;5016505;28;45358;-62
2023/05/02 02:54:33;;;;;;;;;18.20;15.80;;;;;15.36;59.78;101564.84;5016840;28;45271;-62
2023/05/02 02:57:20;;;;;;;;;18.80;16.20;;;;;15.33;60.04;101568.91;5015036;28;46288;-62
2023/05/02 02:59:54;;;;;;;;;18.40;14.80;;;;;15.24;59.70;101556.41;5016299;28;45418;-62
2023/05/02 03:02:19;;;;;;;;;21.20;17.40;;;;;15.20;60.05;101563.47;5016373;28;45927;-62
2023/05/02 03:04:45;;;;;;;;;15.50;12.25;;;;;15.21;60.18;101557.69;5016369;28;45366;-63
2023/05/02 03:07:11;;;;;;;;;18.50;15.50;;;;;15.19;60.22;101548.78;4982309;28;45746;-63
2023/05/02 03:09:43;;;;;;;;;21.75;19.25;;;;;15.11;60.69;101554.59;4930451;28;45912;-62
2023/05/02 03:12:08;;;;;;;;;15.80;15.80;;;;;14.86;61.03;101545.19;4916069;28;45298;-62
2023/05/02 03:14:35;;;;;;;;;15.25;15.25;;;;;15.01;60.69;101558.66;4915912;28;45526;-62
2023/05/02 03:17:00;;;;;;;;;19.40;16.60;;;;;14.89;61.36;101550.25;4946268;28;45795;-64
2023/05/02 03:19:26;;;;;;;;;17.25;14.50;;;;;15.03;60.67;101566.75;4946562;28;45461;-63
2023/05/02 03:21:51;;;;;;;;;22.25;19.00;;;;;15.10;60.40;101570.31;4915345;28;45461;-61
2023/05/02 03:24:17;;;;;;;;;15.50;14.75;;;;;15.14;60.39;101568.81;4915979;28;45286;-63
2023/05/02 03:26:42;;;;;;;;;20.50;19.00;;;;;15.16;60.03;101569.44;4929732;28;45520;-60
2023/05/02 03:29:08;;;;;;;;;15.50;14.25;;;;;15.10;60.42;101555.66;4946989;28;46365;-60
2023/05/02 03:31:33;;;;;;;;;20.25;15.50;;;;;15.10;59.86;101559.25;5014010;28;45444;-60
2023/05/02 03:33:59;;;;;;;;;17.25;16.25;;;;;15.21;60.29;101576.22;5013284;28;45521;-61
2023/05/02 03:36:25;;;;;;;;;19.20;17.60;;;;;15.20;60.35;101580.88;5047531;28;47204;-61
2023/05/02 03:38:50;;;;;;;;;21.00;20.75;;;;;15.21;60.22;101573.47;5015656;28;45414;-61
2023/05/02 03:41:16;;;;;;;;;16.50;15.50;;;;;15.20;60.02;101580.88;5014924;28;45450;-61
2023/05/02 03:43:42;;;;;;;;;18.75;16.75;;;;;15.16;60.24;101582.44;5016090;28;45574;-61
2023/05/02 03:46:08;;;;;;;;;21.00;17.25;;;;;15.08;60.66;101569.69;5046586;28;45602;-61
2023/05/02 03:48:34;;;;;;;;;19.60;18.60;;;;;15.17;60.72;101584.13;5015697;28;45369;-61
2023/05/02 03:51:00;;;;;;;;;23.75;17.25;;;;;15.21;59.94;101579.81;5015611;28;45432;-61
2023/05/02 03:53:25;;;;;;;;;20.80;19.60;;;;;15.04;60.02;101566.53;5047592;28;45430;-63
2023/05/02 03:55:51;;;;;;;;;18.25;16.25;;;;;15.07;60.49;101575.44;5015590;28;45672;-63
2023/05/02 03:58:17;;;;;;;;;23.50;19.25;;;;;15.11;60.35;101582.25;5047496;28;45417;-61
2023/05/02 04:00:42;;;;;;;;;23.75;17.75;;;;;15.06;60.41;101577.38;5014496;28;45488;-61
2023/05/02 04:03:07;;;;;;;;;19.00;18.00;;;;;14.85;60.46;101548.16;5015620;28;45227;-61
2023/05/02 04:05:33;;;;;;;;;23.25;18.50;;;;;15.01;60.77;101575.25;5031043;28;45764;-61
2023/05/02 04:08:00;;;;;;;;;25.00;21.25;;;;;14.98;60.10;101570.19;4922156;28;45894;-61
2023/05/02 04:10:25;;;;;;;;;25.40;19.00;;;;;14.80;61.51;101576.44;4915004;28;45399;-61
2023/05/02 04:12:51;;;;;;;;;20.25;18.25;;;;;14.85;61.51;101579.41;4915159;28;45172;-61
2023/05/02 04:15:16;;;;;;;;;22.75;21.00;;;;;14.91;61.10;101567.44;4914809;28;46043;-61
2023/05/02 04:17:42;;;;;;;;;19.75;17.50;;;;;14.91;61.00;101569.38;4914918;28;45442;-61
2023/05/02 04:20:08;;;;;;;;;23.75;21.75;;;;;14.95;60.95;101581.69;4913681;28;45474;-61
2023/05/02 04:22:33;;;;;;;;;21.40;19.40;;;;;14.94;60.73;101585.50;4915072;28;45605;-62
2023/05/02 04:24:59;;;;;;;;;24.25;19.75;;;;;14.85;61.28;101573.03;4929378;28;47510;-62
2023/05/02 04:27:24;;;;;;;;;26.00;20.25;;;;;14.90;60.83;101595.31;4914998;28;45378;-61
2023/05/02 04:29:50;;;;;;;;;22.75;19.50;;;;;14.85;61.13;101597.91;4913225;28;45476;-61
2023/05/02 04:32:16;;;;;;;;;26.00;22.25;;;;;14.84;61.54;101597.03;4914650;28;45636;-62
2023/05/02 04:34:41;;;;;;;;;20.25;18.25;;;;;14.72;61.33;101585.81;4929375;28;45747;-62
2023/05/02 04:37:07;;;;;;;;;27.00;21.75;;;;;14.82;61.62;101598.31;4914536;28;45486;-61
2023/05/02 04:39:33;;;;;;;;;21.00;17.75;;;;;14.86;60.90;101605.13;4915380;28;45350;-62
2023/05/02 04:41:58;;;;;;;;;26.50;18.50;;;;;14.81;61.30;101602.16;4914102;28;45524;-62
2023/05/02 04:44:24;;;;;;;;;26.75;23.50;;;;;14.74;60.81;101599.44;4913379;28;45839;-62
2023/05/02 04:46:50;;;;;;;;;16.25;15.50;;;;;14.75;61.86;101617.72;4914891;28;45393;-63
2023/05/02 04:49:15;;;;;;;;;22.75;22.50;;;;;14.79;61.39;101620.88;4914993;28;45504;-62
2023/05/02 04:51:40;;;;;;;;;23.25;18.75;;;;;14.85;61.39;101629.16;4929848;28;45255;-62
2023/05/02 04:54:06;;;;;;;;;23.00;18.25;;;;;14.81;61.33;101627.03;4914943;28;45781;-64
2023/05/02 04:56:31;;;;;;;;;23.75;19.00;;;;;14.85;61.58;101631.06;4914916;28;45315;-62
2023/05/02 04:58:57;;;;;;;;;25.25;20.50;;;;;14.81;61.23;101633.41;4915007;28;45447;-62
2023/05/02 05:01:23;;;;;;;;;23.75;21.75;;;;;14.85;61.16;101631.91;4914568;28;45506;-62
2023/05/02 05:03:49;;;;;;;;;29.00;23.80;;;;;14.79;61.51;101618.13;4914555;28;46438;-62
2023/05/02 05:06:14;;;;;;;;;27.00;23.50;;;;;14.88;60.82;101631.47;4933289;28;45483;-62
2023/05/02 05:08:40;;;;;;;;;28.25;25.00;;;;;14.83;61.30;101636.78;5046630;28;45523;-61
2023/05/02 05:11:05;;;;;;;;;24.25;21.75;;;;;14.67;61.87;101634.50;5014686;28;45436;-61
2023/05/02 05:13:31;;;;;;;;;23.25;21.50;;;;;14.70;61.27;101637.69;5046374;28;45470;-61
2023/05/02 05:15:56;;;;;;;;;29.25;25.50;;;;;14.63;61.74;101640.44;5014478;28;45378;-61
2023/05/02 05:18:22;;;;;;;;;27.50;23.00;;;;;14.57;61.33;101640.47;5046331;28;45377;-61
2023/05/02 05:20:48;;;;;;;;;24.00;20.50;;;;;14.71;62.01;101652.31;5014857;28;45159;-61
2023/05/02 05:23:13;;;;;;;;;31.00;24.50;;;;;14.76;61.21;101658.94;5014269;28;46623;-61
2023/05/02 05:25:39;;;;;;;;;24.00;18.25;;;;;14.84;61.11;101663.38;5014158;28;45326;-61
2023/05/02 05:28:05;;;;;;;;;27.50;24.50;;;;;14.89;60.91;101663.56;5045878;28;45255;-61
2023/05/02 05:30:31;;;;;;;;;31.50;24.50;;;;;14.83;61.15;101663.59;5013274;28;45309;-61
2023/05/02 05:32:57;;;;;;;;;23.75;19.75;;;;;14.80;60.98;101666.78;5013757;28;46360;-60
2023/05/02 05:35:23;;;;;;;;;27.20;23.60;;;;;14.82;61.05;101668.28;5045858;28;45436;-61
2023/05/02 05:37:49;;;;;;;;;24.40;22.00;;;;;14.82;61.33;101675.69;5014179;28;45404;-61
2023/05/02 05:40:15;;;;;;;;;24.75;21.75;;;;;14.81;61.44;101676.78;5013185;28;45455;-61
2023/05/02 05:42:41;;;;;;;;;26.00;24.20;;;;;14.88;61.38;101680.34;5013838;28;46128;-60
2023/05/02 05:45:07;;;;;;;;;27.75;22.00;;;;;14.90;60.87;101676.31;5014131;28;45339;-61
2023/05/02 05:47:33;;;;;;;;;27.60;26.00;;;;;14.92;61.14;101681.63;5014291;28;45249;-62
2023/05/02 05:49:59;;;;;;;;;25.50;23.50;;;;;15.00;60.64;101695.19;5046629;28;45326;-62
2023/05/02 05:52:25;;;;;;;;;22.00;22.00;;;;;14.93;60.90;101666.72;5029223;28;45704;-62
2023/05/02 05:54:56;;;;;;;;;28.50;25.25;;;;;14.98;60.75;101690.94;5014230;28;45385;-61
2023/05/02 05:57:22;;;;;;;;;23.40;20.40;;;;;14.96;60.63;101693.97;5014067;28;45480;-61
2023/05/02 05:59:48;;;;;;;;;38.80;29.00;;;;;14.89;61.29;101691.19;5045796;28;45249;-62
2023/05/02 06:02:14;;;;;;;;;28.00;21.75;;;;;14.93;61.27;101699.91;5013661;28;45480;-62
2023/05/02 06:04:40;;;;;;;;;27.25;25.50;;;;;14.94;61.31;101701.59;5013101;28;45364;-61
2023/05/02 06:07:05;;;;;;;;;22.50;20.75;;;;;14.93;60.88;101699.91;4961338;28;45364;-61
2023/05/02 06:09:31;;;;;;;;;30.00;25.25;;;;;14.87;61.12;101692.47;4913850;28;45354;-61
2023/05/02 06:11:56;;;;;;;;;26.50;24.00;;;;;15.02;60.63;101712.44;4916121;28;45445;-60
2023/05/02 06:14:22;;;;;;;;;29.25;23.50;;;;;15.02;60.44;101706.03;4931061;28;45356;-62
2023/05/02 06:16:47;;;;;;;;;30.75;29.50;;;;;15.06;60.67;101714.75;4916216;28;45272;-61
2023/05/02 06:19:14;;;;;;;;;30.75;26.00;;;;;15.04;60.88;101720.50;4916419;28;45601;-61
2023/05/02 06:21:39;;;;;;;;;28.60;24.60;;;;;15.03;60.46;101719.66;4916216;28;45422;-61
2023/05/02 06:24:05;;;;;;;;;30.00;28.00;;;;;15.07;60.83;101724.72;4915683;28;45389;-61
2023/05/02 06:26:30;;;;;;;;;26.25;24.75;;;;;15.00;61.18;101722.84;4916411;28;45439;-61
2023/05/02 06:28:56;;;;;;;;;26.50;23.50;;;;;15.06;61.08;101725.81;4930530;28;45262;-61
2023/05/02 06:31:21;;;;;;;;;26.50;25.00;;;;;15.04;61.11;101729.66;4930241;28;47404;-63
2023/05/02 06:33:47;;;;;;;;;30.75;26.25;;;;;15.06;61.05;101723.03;4915765;28;45318;-62
2023/05/02 06:36:13;;;;;;;;;32.00;27.00;;;;;15.15;60.89;101735.53;4916480;28;45396;-62
2023/05/02 06:38:39;;;;;;;;;34.00;30.20;;;;;15.21;60.70;101736.59;4916155;28;45491;-61
2023/05/02 06:41:05;;;;;;;;;31.75;29.00;;;;;15.26;60.28;101731.28;4930343;28;47948;-61
2023/05/02 06:43:31;;;;;;;;;30.60;29.00;;;;;15.18;60.41;101727.69;4916048;28;45394;-61
2023/05/02 06:45:57;;;;;;;;;34.60;30.20;;;;;15.30;60.15;101736.13;4916174;28;45377;-63
2023/05/02 06:48:23;;;;;;;;;29.00;26.20;;;;;15.30;60.31;101743.56;4930744;28;45483;-61
2023/05/02 06:50:50;;;;;;;;;28.50;23.00;;;;;15.29;60.49;101737.22;4930799;28;45454;-63
2023/05/02 06:53:16;;;;;;;;;34.00;28.60;;;;;15.35;60.49;101748.44;4930275;28;45360;-62
2023/05/02 06:55:41;;;;;;;;;35.50;30.25;;;;;15.38;60.27;101748.03;4930501;28;45399;-61
2023/05/02 06:58:07;;;;;;;;;34.00;26.25;;;;;15.41;59.90;101742.88;4915910;28;45324;-61
2023/05/02 07:00:32;;;;;;;;;33.75;27.25;;;;;15.34;60.32;101746.75;4930637;28;45401;-61
2023/05/02 07:02:58;;;;;;;;;40.50;32.50;;;;;15.34;60.68;101746.75;4915972;28;45250;-61
2023/05/02 07:05:23;;;;;;;;;28.00;26.00;;;;;15.38;60.59;101746.09;4915846;28;45295;-61
2023/05/02 07:07:49;;;;;;;;;29.75;28.25;;;;;15.40;60.25;101749.50;4994851;28;45251;-61
2023/05/02 07:10:15;;;;;;;;;35.75;30.00;;;;;15.40;60.12;101765.22;5031234;28;45597;-61
2023/05/02 07:12:40;;;;;;;;;37.25;32.25;;;;;15.45;60.35;101757.13;5016187;28;45203;-63
2023/05/02 07:15:06;;;;;;;;;26.50;24.50;;;;;15.54;59.51;101755.78;5016172;28;45378;-61
2023/05/02 07:17:32;;;;;;;;;31.50;28.00;;;;;15.58;59.69;101751.53;5015166;28;45226;-61
2023/05/02 07:19:58;;;;;;;;;35.50;30.50;;;;;15.58;59.83;101751.53;5015420;28;46148;-63
2023/05/02 07:22:23;;;;;;;;;41.50;34.25;;;;;15.58;59.67;101750.66;5013778;28;45425;-61
2023/05/02 07:24:56;;;;;;;;;35.50;29.50;;;;;15.65;59.62;101745.13;5016306;28;45254;-61
2023/05/02 07:27:21;;;;;;;;;34.80;30.80;;;;;15.62;59.24;101737.28;4960536;28;45402;-61
2023/05/02 07:29:47;;;;;;;;;37.25;32.25;;;;;15.67;59.26;101749.34;5015717;28;45290;-62
2023/05/02 07:32:12;;;;;;;;;34.75;28.00;;;;;15.70;59.65;101748.06;5047562;28;45310;-62
2023/05/02 07:34:38;;;;;;;;;31.75;29.50;;;;;15.73;59.35;101747.63;5016289;28;45394;-63
2023/05/02 07:37:03;;;;;;;;;31.75;29.00;;;;;15.78;59.07;101750.56;5016442;28;45370;-63
2023/05/02 07:39:29;;;;;;;;;38.50;35.00;;;;;15.81;59.41;101750.09;5047469;28;45695;-60
2023/05/02 07:41:55;;;;;;;;;39.25;33.25;;;;;15.83;58.89;101748.00;4910218;28;45605;-63
2023/05/02 07:44:21;;;;;;;;;36.80;30.20;;;;;15.75;58.82;101752.94;4934877;28;46010;-63
2023/05/02 07:46:46;;;;;;;;;38.00;32.00;;;;;15.91;59.08;101762.63;4910886;28;45479;-63
2023/05/02 07:49:13;;;;;;;;;37.00;32.40;;;;;15.93;58.85;101763.28;4961500;28;45621;-62
2023/05/02 07:51:38;;;;;;;;;32.75;28.25;;;;;16.04;58.51;101768.09;4952944;28;45376;-60
2023/05/02 07:54:14;;;;;;;;;38.00;31.75;;;;;16.12;58.20;101772.53;5038209;28;45432;-60
2023/05/02 07:56:41;;;;;;;;;40.60;33.80;;;;;16.09;58.11;101756.34;4943499;28;45398;-62
2023/05/02 07:59:07;;;;;;;;;38.80;32.60;;;;;16.11;57.66;101765.28;5013565;28;45457;-61
2023/05/02 08:01:32;;;;;;;;;38.25;31.50;;;;;16.21;57.78;101768.41;4976515;28;45400;-61
2023/05/02 08:03:57;;;;;;;;;37.00;31.25;;;;;16.26;57.63;101759.41;4913661;28;45415;-61
2023/05/02 08:06:23;;;;;;;;;37.25;32.25;;;;;16.39;57.31;101769.56;4948956;28;45501;-61
2023/05/02 08:08:48;;;;;;;;;37.25;34.00;;;;;16.31;57.43;101758.72;4930363;28;46471;-62
2023/05/02 08:11:14;;;;;;;;;34.25;32.25;;;;;16.50;57.21;101768.78;4932987;28;45511;-61
2023/05/02 08:13:40;;;;;;;;;31.00;26.75;;;;;16.49;56.82;101769.88;4963204;28;45485;-61
2023/05/02 08:16:05;;;;;;;;;29.75;28.50;;;;;16.61;56.78;101783.84;4926789;28;45518;-63
2023/05/02 08:18:31;;;;;;;;;33.75;30.00;;;;;16.57;56.74;101778.97;4934479;28;45440;-60
2023/05/02 08:20:57;;;;;;;;;36.75;31.00;;;;;16.57;56.55;101784.50;4948695;28;45345;-61
2023/05/02 08:23:23;;;;;;;;;22.80;22.80;;;;;16.52;57.08;101787.97;4913173;28;45473;-60
2023/05/02 08:25:48;;;;;;;;;29.00;27.75;;;;;16.63;56.40;101787.25;4913529;28;45569;-60
2023/05/02 08:28:14;;;;;;;;;28.50;25.75;;;;;16.57;56.33;101790.06;4927908;28;45389;-60
2023/05/02 08:30:39;;;;;;;;;28.00;25.00;;;;;16.72;55.95;101787.81;4926206;28;46370;-60
2023/05/02 08:33:05;;;;;;;;;24.75;22.75;;;;;16.75;55.79;101780.97;4929624;28;45374;-61
2023/05/02 08:35:30;;;;;;;;;28.50;25.50;;;;;16.85;55.35;101786.81;4932591;28;45665;-62
2023/05/02 08:37:56;;;;;;;;;27.75;24.00;;;;;16.83;55.53;101793.66;4920436;28;46380;-62
2023/05/02 08:40:22;;;;;;;;;24.00;21.50;;;;;16.67;55.41;101784.84;4924935;28;45532;-62
2023/05/02 08:42:47;;;;;;;;;26.00;23.75;;;;;16.67;55.38;101773.78;4909642;28;45310;-61
2023/05/02 08:45:14;;;;;;;;;23.50;22.25;;;;;16.88;55.55;101797.47;4946094;28;45625;-61
2023/05/02 08:47:40;;;;;;;;;17.80;16.80;;;;;17.04;55.23;101800.72;4913027;28;47065;-61
2023/05/02 08:50:06;;;;;;;;;24.00;21.25;;;;;17.02;54.29;101797.34;4911480;28;45504;-60
2023/05/02 08:52:32;;;;;;;;;22.40;18.00;;;;;16.96;54.72;101798.25;4912475;28;45467;-61
2023/05/02 08:54:57;;;;;;;;;22.00;20.50;;;;;17.05;54.32;101797.75;4910785;28;45476;-61
2023/05/02 08:57:23;;;;;;;;;17.75;17.75;;;;;17.14;54.44;101795.47;4929085;28;46089;-61
2023/05/02 08:59:49;;;;;;;;;26.50;25.25;;;;;17.17;54.01;101797.81;4931753;28;45437;-62
2023/05/02 09:02:45;;;;;;;;;18.75;18.50;;;;;17.26;54.46;101808.59;4932464;28;45436;-61
2023/05/02 09:05:11;;;;;;;;;16.40;16.40;;;;;17.34;54.00;101806.38;4964740;28;45562;-61
2023/05/02 09:07:47;;;;;;;;;17.75;15.00;;;;;17.37;53.75;101791.19;4924209;28;45687;-62
2023/05/02 09:10:13;;;;;;;;;23.20;20.60;;;;;17.52;53.74;101799.13;4911012;28;45343;-61
2023/05/02 09:12:38;;;;;;;;;23.60;22.60;;;;;17.44;53.54;101802.19;4912014;28;45492;-61
2023/05/02 09:15:14;;;;;;;;;25.50;17.75;;;;;17.47;53.58;101810.88;4927046;28;45547;-60
2023/05/02 09:17:41;;;;;;;;;25.00;24.20;;;;;17.44;53.43;101813.28;4912449;28;47296;-60
2023/05/02 09:20:07;;;;;;;;;23.20;20.80;;;;;17.41;54.11;101820.16;4914923;28;45470;-61
2023/05/02 09:22:35;;;;;;;;;28.25;26.50;;;;;17.47;54.31;101823.94;4927633;28;45826;-61
2023/05/02 09:25:00;;;;;;;;;36.20;29.40;;;;;17.59;54.11;101826.78;4912147;28;45846;-60
2023/05/02 09:27:26;;;;;;;;;32.00;27.25;;;;;17.70;53.94;101825.13;4912899;28;46443;-61
2023/05/02 09:29:52;;;;;;;;;26.75;24.75;;;;;17.77;53.80;101825.06;4926792;28;45422;-62
2023/05/02 09:32:17;;;;;;;;;29.00;27.75;;;;;17.74;53.90;101823.59;4925716;28;45473;-62
2023/05/02 09:35:05;;;;;;;;;29.50;27.25;;;;;17.56;54.10;101830.03;4911491;28;45430;-60
2023/05/02 09:37:34;;;;;;;;;35.20;32.60;;;;;17.53;54.30;101836.03;4972953;28;47344;-62
2023/05/02 09:40:06;;;;;;;;;43.40;36.40;;;;;17.60;54.47;101831.22;5011619;28;45445;-60
2023/05/02 09:42:32;;;;;;;;;46.40;36.40;;;;;17.70;54.58;101848.19;4988788;28;45684;-60
2023/05/02 09:44:57;;;;;;;;;37.25;33.50;;;;;17.70;54.44;101850.97;4945929;28;45683;-62
2023/05/02 09:47:26;;;;;;;;;37.25;32.00;;;;;17.77;54.41;101845.31;4914738;28;45673;-64
2023/05/02 09:49:51;;;;;;;;;45.60;36.20;;;;;17.87;53.97;101845.63;4929631;28;46020;-63
2023/05/02 09:52:21;;;;;;;;;45.75;33.50;;;;;17.87;54.19;101842.00;4913612;28;45842;-63
2023/05/02 09:54:49;;;;;;;;;43.60;35.80;;;;;17.87;54.04;101848.41;4915384;28;45386;-62
2023/05/02 09:57:15;;;;;;;;;41.00;34.60;;;;;17.75;54.29;101848.34;4923821;28;46660;-63
2023/05/02 09:59:40;;;;;;;;;44.00;36.25;;;;;17.74;54.41;101855.00;4948458;28;45394;-63
2023/05/02 10:02:08;;;;;;;;;33.25;31.00;;;;;17.87;53.80;101853.97;4932595;28;45327;-63
2023/05/02 10:04:33;;;;;;;;;36.00;31.40;;;;;18.01;53.36;101853.78;4934070;28;45575;-61
2023/05/02 10:06:59;;;;;;;;;35.75;31.25;;;;;18.01;53.21;101849.09;4929415;28;46475;-60
2023/05/02 10:09:25;;;;;;;;;31.75;28.00;;;;;17.82;53.11;101819.66;4926895;28;45398;-61
2023/05/02 10:11:52;;;;;;;;;25.50;23.25;;;;;18.10;53.07;101846.00;4932549;28;45914;-61
2023/05/02 10:14:19;;;;;;;;;26.20;24.00;;;;;18.27;52.73;101848.94;4889625;28;45597;-61
2023/05/02 10:17:12;;;;;;;;;25.00;22.40;;;;;18.27;52.48;101844.25;4913575;28;46074;-60
2023/05/02 10:19:38;;;;;;;;;24.00;20.00;;;;;18.40;52.33;101845.09;4913236;28;45730;-60
2023/05/02 10:22:03;;;;;;;;;20.40;17.80;;;;;18.31;51.21;101852.09;4917084;28;45351;-60
2023/05/02 10:24:31;;;;;;;;;20.75;17.25;;;;;18.21;52.14;101845.19;4929501;28;45407;-59
2023/05/02 10:26:56;;;;;;;;;26.20;23.60;;;;;18.40;52.38;101857.09;4929149;28;46860;-61
2023/05/02 10:29:22;;;;;;;;;21.75;21.75;;;;;18.43;51.40;101834.34;4925921;28;45460;-60
2023/05/02 10:31:48;;;;;;;;;24.25;18.50;;;;;18.54;51.33;101841.03;4926464;28;45346;-59
2023/05/02 10:34:13;;;;;;;;;23.00;17.75;;;;;18.63;51.58;101847.06;4910111;28;45485;-57
2023/05/02 10:36:39;;;;;;;;;17.00;16.00;;;;;18.72;51.23;101847.56;4913002;28;46024;-57
2023/05/02 10:39:05;;;;;;;;;18.00;16.75;;;;;18.81;51.29;101856.41;4913308;28;46382;-58
2023/05/02 10:41:31;;;;;;;;;19.50;19.00;;;;;18.83;50.65;101849.53;4915979;28;45451;-60
2023/05/02 10:43:57;;;;;;;;;12.40;11.20;;;;;18.59;50.90;101845.88;4913241;28;45482;-60
2023/05/02 10:46:32;;;;;;;;;17.60;14.20;;;;;18.67;51.83;101834.41;4930428;28;46667;-60
2023/05/02 10:49:08;;;;;;;;;14.80;14.40;;;;;18.92;51.57;101841.69;4928255;28;45563;-60
2023/05/02 10:51:35;;;;;;;;;15.80;15.00;;;;;19.08;49.79;101854.03;4913037;28;45417;-59
2023/05/02 10:54:15;;;;;;;;;19.00;18.00;;;;;19.17;50.27;101845.31;4913944;28;45451;-60
2023/05/02 10:57:02;;;;;;;;;16.60;15.60;;;;;19.40;50.21;101850.00;4916675;28;45481;-60
2023/05/02 10:59:29;;;;;;;;;21.80;20.00;;;;;19.58;49.60;101848.16;4914138;28;45496;-60
2023/05/02 11:01:55;;;;;;;;;19.60;17.80;;;;;19.64;50.12;101847.19;4944308;28;45717;-62
2023/05/02 11:04:21;;;;;;;;;22.40;18.20;;;;;19.66;49.30;101835.78;4945420;28;45480;-61
2023/05/02 11:06:55;;;;;;;;;20.25;17.00;;;;;19.73;49.62;101845.69;4917070;28;45985;-61
2023/05/02 11:09:21;;;;;;;;;16.20;16.00;;;;;19.93;49.38;101849.97;4999855;28;45397;-63